createdAt,value
2018-08-16T06:19:52.154Z,6.97
2018-08-16T06:22:20.391Z,6.73
2018-08-16T06:24:48.645Z,6.97
2018-08-16T06:27:16.930Z,10.87
2018-08-16T06:29:45.161Z,7.60
2018-08-16T06:32:13.453Z,11.07
2018-08-16T06:34:41.709Z,5.37
2018-08-16T06:37:09.987Z,8.83
2018-08-16T06:39:38.241Z,7.63
2018-08-16T06:42:06.537Z,6.27
2018-08-16T06:44:34.789Z,6.83
2018-08-16T06:47:03.268Z,6.57
2018-08-16T06:49:31.508Z,6.30
2018-08-16T06:51:59.789Z,7.23
2018-08-16T06:54:28.036Z,7.00
2018-08-16T06:57:00.106Z,7.97
2018-08-16T06:59:28.339Z,8.30
2018-08-16T07:01:56.590Z,7.67
2018-08-16T07:04:24.845Z,7.23
2018-08-16T07:06:53.118Z,9.00
2018-08-16T07:09:21.369Z,5.93
2018-08-16T07:11:49.650Z,6.30
2018-08-16T07:14:17.926Z,8.03
2018-08-16T07:16:46.214Z,9.93
2018-08-16T07:19:14.483Z,6.57
2018-08-16T07:21:42.768Z,9.90
2018-08-16T07:24:11.021Z,5.17
2018-08-16T07:26:39.329Z,13.27
2018-08-16T07:29:07.587Z,8.37
2018-08-16T07:31:35.866Z,8.77
2018-08-16T07:34:04.117Z,6.53
2018-08-16T07:36:32.378Z,15.00
2018-08-16T07:39:00.653Z,17.13
2018-08-16T07:41:28.902Z,7.30
2018-08-16T07:43:57.146Z,6.20
2018-08-16T07:46:25.480Z,6.53
2018-08-16T07:48:53.660Z,11.10
2018-08-16T07:51:22.066Z,7.30
2018-08-16T07:53:50.176Z,7.63
2018-08-16T07:56:18.443Z,4.00
2018-08-16T07:58:46.686Z,5.43
2018-08-16T08:01:14.959Z,7.00
2018-08-16T08:03:43.208Z,10.53
2018-08-16T08:06:11.465Z,6.70
2018-08-16T08:08:39.721Z,6.70
2018-08-16T08:11:07.992Z,7.30
2018-08-16T08:13:36.237Z,6.60
2018-08-16T08:16:04.546Z,7.50
2018-08-16T08:18:32.845Z,3.90
2018-08-16T08:21:01.098Z,6.40
2018-08-16T08:23:29.352Z,2.77
2018-08-16T08:25:57.585Z,4.73
2018-08-16T08:28:25.842Z,9.80
2018-08-16T08:30:54.084Z,5.17
2018-08-16T08:33:22.355Z,5.27
2018-08-16T08:36:02.326Z,6.13
2018-08-16T08:38:30.638Z,2.40
2018-08-16T08:40:58.873Z,3.10
2018-08-16T08:43:38.514Z,7.50
2018-08-16T08:46:06.777Z,5.73
2018-08-16T08:48:35.054Z,5.23
2018-08-16T08:51:03.312Z,3.63
2018-08-16T08:55:00.181Z,4.57
2018-08-16T08:57:39.688Z,19.60
2018-08-16T09:00:08.128Z,6.73
2018-08-16T09:02:36.471Z,6.70
2018-08-16T09:05:05.768Z,6.83
2018-08-16T09:07:34.035Z,3.37
2018-08-16T09:11:14.258Z,2.33
2018-08-16T09:13:55.164Z,7.00
2018-08-16T09:16:28.128Z,3.53
2018-08-16T09:18:56.703Z,7.37
2018-08-16T09:21:25.092Z,2.43
2018-08-16T09:23:53.385Z,4.90
2018-08-16T09:26:27.318Z,3.20
2018-08-16T09:28:55.558Z,6.13
2018-08-16T09:31:34.998Z,4.30
2018-08-16T09:34:14.298Z,3.20
2018-08-16T09:36:42.528Z,4.40
2018-08-16T09:39:10.777Z,3.07
2018-08-16T09:41:39.121Z,2.63
2018-08-16T09:44:07.479Z,5.00
2018-08-16T09:47:01.211Z,3.23
2018-08-16T09:49:30.852Z,3.87
2018-08-16T09:51:59.197Z,3.47
2018-08-16T09:54:27.469Z,4.47
2018-08-16T09:56:56.626Z,4.63
2018-08-16T09:59:24.908Z,5.23
2018-08-16T10:01:53.211Z,8.97
2018-08-16T10:04:21.486Z,3.90
2018-08-16T10:06:49.730Z,7.20
2018-08-16T10:09:23.104Z,5.27
2018-08-16T10:11:51.467Z,3.27
2018-08-16T10:14:20.043Z,2.63
2018-08-16T10:16:48.369Z,3.47
2018-08-16T10:19:16.634Z,3.43
2018-08-16T10:21:44.929Z,3.10
2018-08-16T10:24:13.270Z,5.83
2018-08-16T10:26:41.506Z,4.50
2018-08-16T10:29:10.294Z,4.07
2018-08-16T10:31:38.567Z,4.10
2018-08-16T10:34:06.832Z,3.10
2018-08-16T10:36:35.105Z,3.87
2018-08-16T10:39:04.583Z,4.00
2018-08-16T10:41:32.846Z,4.73
2018-08-16T10:44:01.090Z,5.23
2018-08-16T10:46:29.321Z,4.43
2018-08-16T10:48:57.586Z,4.53
2018-08-16T10:51:25.838Z,4.40
2018-08-16T10:53:54.093Z,4.97
2018-08-16T10:56:22.338Z,4.40
2018-08-16T10:58:50.596Z,5.23
2018-08-16T11:01:18.873Z,5.17
2018-08-16T11:03:47.116Z,5.27
2018-08-16T11:06:15.361Z,4.90
2018-08-16T11:08:43.648Z,5.93
2018-08-16T11:11:11.897Z,5.90
2018-08-16T11:13:40.153Z,6.40
2018-08-16T11:16:08.432Z,5.97
2018-08-16T11:18:36.669Z,5.83
2018-08-16T11:21:04.924Z,3.00
2018-08-16T11:23:33.165Z,3.90
2018-08-16T11:26:01.412Z,7.13
2018-08-16T11:28:29.654Z,6.17
2018-08-16T11:30:57.919Z,5.00
2018-08-16T11:33:26.163Z,6.23
2018-08-16T11:35:54.445Z,3.80
2018-08-16T11:38:22.692Z,6.90
2018-08-16T11:40:50.965Z,3.90
2018-08-16T11:43:19.196Z,4.47
2018-08-16T11:45:47.448Z,7.47
2018-08-16T11:48:15.689Z,5.87
2018-08-16T11:50:43.958Z,6.20
2018-08-16T11:53:12.230Z,4.33
2018-08-16T11:55:40.497Z,6.27
2018-08-16T11:58:08.761Z,6.47
2018-08-16T12:00:37.056Z,3.93
2018-08-16T12:03:05.629Z,5.13
2018-08-16T12:05:33.913Z,7.33
2018-08-16T12:08:02.198Z,5.77
2018-08-16T12:10:30.527Z,5.30
2018-08-16T12:12:58.790Z,3.93
2018-08-16T12:15:27.084Z,3.50
2018-08-16T12:17:55.330Z,4.57
2018-08-16T12:20:23.609Z,5.23
2018-08-16T12:22:51.857Z,5.23
2018-08-16T12:25:20.133Z,4.03
2018-08-16T12:27:48.423Z,3.97
2018-08-16T12:30:16.701Z,5.63
2018-08-16T12:32:44.962Z,4.07
2018-08-16T12:35:13.256Z,3.63
2018-08-16T12:37:41.583Z,6.57
2018-08-16T12:40:09.872Z,4.23
2018-08-16T12:42:38.129Z,4.40
2018-08-16T12:45:06.618Z,4.57
2018-08-16T12:47:34.878Z,3.87
2018-08-16T12:50:03.184Z,5.37
2018-08-16T12:52:31.459Z,4.20
2018-08-16T12:54:59.725Z,6.97
2018-08-16T12:57:28.009Z,6.70
2018-08-16T12:59:56.338Z,10.70
2018-08-16T13:02:24.584Z,6.97
2018-08-16T13:04:52.850Z,5.53
2018-08-16T13:07:21.133Z,4.30
2018-08-16T13:09:49.394Z,6.60
2018-08-16T13:12:17.713Z,6.20
2018-08-16T13:14:45.972Z,8.90
2018-08-16T13:17:14.285Z,4.73
2018-08-16T13:19:42.556Z,15.33
2018-08-16T13:22:10.842Z,4.70
2018-08-16T13:24:39.117Z,9.07
2018-08-16T13:27:07.484Z,7.77
2018-08-16T13:29:35.745Z,6.57
2018-08-16T13:32:04.022Z,4.93
2018-08-16T13:34:32.270Z,5.63
2018-08-16T13:37:00.546Z,9.03
2018-08-16T13:39:28.825Z,5.77
2018-08-16T13:41:57.116Z,4.50
2018-08-16T13:44:25.421Z,4.33
2018-08-16T13:46:53.695Z,4.87
2018-08-16T13:49:21.974Z,7.00
2018-08-16T13:51:50.249Z,14.73
2018-08-16T13:54:18.499Z,5.77
2018-08-16T13:56:46.778Z,4.57
2018-08-16T13:59:15.036Z,4.40
2018-08-16T14:01:43.376Z,6.93
2018-08-16T14:04:11.617Z,4.83
2018-08-16T14:06:39.901Z,6.83
2018-08-16T14:09:09.051Z,5.43
2018-08-16T14:11:37.342Z,4.27
2018-08-16T14:14:05.709Z,8.40
2018-08-16T14:16:34.026Z,5.87
2018-08-16T14:19:02.291Z,5.07
2018-08-16T14:21:30.580Z,8.13
2018-08-16T14:23:58.845Z,4.07
2018-08-16T14:26:27.134Z,5.97
2018-08-16T14:28:55.485Z,6.40
2018-08-16T14:31:23.764Z,7.17
2018-08-16T14:33:52.207Z,31.77
2018-08-16T14:36:20.495Z,6.70
2018-08-16T14:38:48.812Z,10.37
2018-08-16T14:41:17.073Z,4.63
2018-08-16T14:43:45.348Z,5.93
2018-08-16T14:46:13.784Z,6.80
2018-08-16T14:48:42.041Z,7.07
2018-08-16T14:51:10.344Z,8.70
2018-08-16T14:53:38.665Z,8.27
2018-08-16T14:56:07.092Z,5.37
2018-08-16T14:58:35.410Z,7.43
2018-08-16T15:01:03.685Z,8.97
2018-08-16T15:03:31.960Z,4.97
2018-08-16T15:06:00.253Z,4.87
2018-08-16T15:08:28.525Z,7.40
2018-08-16T15:10:56.799Z,11.60
2018-08-16T15:13:25.084Z,9.53
2018-08-16T15:15:53.376Z,3.67
2018-08-16T15:18:21.668Z,5.00
2018-08-16T15:20:49.911Z,5.90
2018-08-16T15:23:18.202Z,3.90
2018-08-16T15:25:46.458Z,5.80
2018-08-16T15:28:14.782Z,3.67
2018-08-16T15:30:43.093Z,6.30
2018-08-16T15:33:11.426Z,8.20
2018-08-16T15:35:39.673Z,8.40
2018-08-16T15:38:08.757Z,3.97
2018-08-16T15:40:37.044Z,7.63
2018-08-16T15:43:05.333Z,15.87
2018-08-16T15:45:33.650Z,11.33
2018-08-16T15:48:01.974Z,3.73
2018-08-16T15:50:30.197Z,5.20
2018-08-16T15:52:58.485Z,4.13
2018-08-16T15:55:26.745Z,4.53
2018-08-16T15:57:55.038Z,3.97
2018-08-16T16:00:23.293Z,10.50
2018-08-16T16:02:51.573Z,6.23
2018-08-16T16:05:19.839Z,5.83
2018-08-16T16:07:48.120Z,7.10
2018-08-16T16:10:16.382Z,6.17
2018-08-16T16:12:44.649Z,7.07
2018-08-16T16:15:12.934Z,9.00
2018-08-16T16:17:41.257Z,5.37
2018-08-16T16:20:09.520Z,5.00
2018-08-16T16:22:38.133Z,4.67
2018-08-16T16:25:06.980Z,3.77
2018-08-16T16:27:35.733Z,6.13
2018-08-16T16:30:04.765Z,6.57
2018-08-16T16:32:33.057Z,6.43
2018-08-16T16:35:01.394Z,7.00
2018-08-16T16:37:29.690Z,11.83
2018-08-16T16:39:57.981Z,6.53
2018-08-16T16:42:26.265Z,5.67
2018-08-16T16:44:54.535Z,7.30
2018-08-16T16:47:22.804Z,4.13
2018-08-16T16:49:51.095Z,6.80
2018-08-16T16:52:19.373Z,9.97
2018-08-16T16:54:47.662Z,4.83
2018-08-16T16:57:15.935Z,4.17
2018-08-16T16:59:44.233Z,10.43
2018-08-16T17:02:12.513Z,4.43
2018-08-16T17:04:40.881Z,15.23
2018-08-16T17:07:09.216Z,7.57
2018-08-16T17:09:37.510Z,5.03
2018-08-16T17:12:06.024Z,8.00
2018-08-16T17:14:34.306Z,5.20
2018-08-16T17:17:02.607Z,6.00
2018-08-16T17:19:30.921Z,4.70
2018-08-16T17:21:59.189Z,6.27
2018-08-16T17:24:27.489Z,7.80
2018-08-16T17:26:55.764Z,7.13
2018-08-16T17:29:24.066Z,9.77
2018-08-16T17:31:52.387Z,6.13
2018-08-16T17:34:20.813Z,24.73
2018-08-16T17:36:49.165Z,19.33
2018-08-16T17:39:17.420Z,18.93
2018-08-16T17:41:45.701Z,10.67
2018-08-16T17:44:14.010Z,7.03
2018-08-16T17:46:42.277Z,14.47
2018-08-16T17:49:10.575Z,16.40
2018-08-16T17:51:38.853Z,18.03
2018-08-16T17:54:07.236Z,16.10
2018-08-16T17:56:35.537Z,10.47
2018-08-16T17:59:03.821Z,7.60
2018-08-16T18:01:32.117Z,9.13
2018-08-16T18:04:00.409Z,5.57
2018-08-16T18:06:28.679Z,9.97
2018-08-16T18:08:56.970Z,9.30
2018-08-16T18:11:25.265Z,17.30
2018-08-16T18:13:53.556Z,12.53
2018-08-16T18:16:21.858Z,27.10
2018-08-16T18:18:50.156Z,39.37
2018-08-16T18:21:18.410Z,28.60
2018-08-16T18:23:46.698Z,23.63
2018-08-16T18:26:14.941Z,23.40
2018-08-16T18:28:43.228Z,22.40
2018-08-16T18:31:11.479Z,22.20
2018-08-16T18:33:39.764Z,24.47
2018-08-16T18:36:08.020Z,26.47
2018-08-16T18:38:36.316Z,15.30
2018-08-16T18:41:04.589Z,17.83
2018-08-16T18:43:32.857Z,20.27
2018-08-16T18:46:01.142Z,17.47
2018-08-16T18:48:29.408Z,26.93
2018-08-16T18:50:57.693Z,20.20
2018-08-16T18:53:25.972Z,21.17
2018-08-16T18:55:54.269Z,12.50
2018-08-16T18:58:22.546Z,24.30
2018-08-16T19:00:50.822Z,13.00
2018-08-16T19:03:19.081Z,10.27
2018-08-16T19:05:47.441Z,8.47
